sensor_id;sensor_type;location;lat;lon;timestamp;temperature;humidity
43087;DHT22;28708;52.224;6.924;2022-11-12T00:01:14;8.50;99.90
43087;DHT22;28708;52.224;6.924;2022-11-12T00:03:58;8.50;99.90
43087;DHT22;28708;52.224;6.924;2022-11-12T00:06:42;8.50;99.90
43087;DHT22;28708;52.224;6.924;2022-11-12T00:09:26;8.50;99.90
43087;DHT22;28708;52.224;6.924;2022-11-12T00:12:10;8.50;99.90
43087;DHT22;28708;52.224;6.924;2022-11-12T00:14:54;8.50;99.90
43087;DHT22;28708;52.224;6.924;2022-11-12T00:17:38;8.50;99.90
43087;DHT22;28708;52.224;6.924;2022-11-12T00:20:22;8.50;99.90
43087;DHT22;28708;52.224;6.924;2022-11-12T00:23:06;8.40;99.90
43087;DHT22;28708;52.224;6.924;2022-11-12T00:25:58;8.40;99.90
43087;DHT22;28708;52.224;6.924;2022-11-12T00:28:43;8.40;99.90
43087;DHT22;28708;52.224;6.924;2022-11-12T00:31:27;8.40;99.90
43087;DHT22;28708;52.224;6.924;2022-11-12T00:34:11;8.40;99.90
43087;DHT22;28708;52.224;6.924;2022-11-12T00:36:55;8.40;99.90
43087;DHT22;28708;52.224;6.924;2022-11-12T00:39:39;8.40;99.90
43087;DHT22;28708;52.224;6.924;2022-11-12T00:42:23;8.40;99.90
43087;DHT22;28708;52.224;6.924;2022-11-12T00:45:08;8.40;99.90
43087;DHT22;28708;52.224;6.924;2022-11-12T00:47:55;8.30;99.90
43087;DHT22;28708;52.224;6.924;2022-11-12T00:50:40;8.30;99.90
43087;DHT22;28708;52.224;6.924;2022-11-12T00:53:24;8.40;99.90
43087;DHT22;28708;52.224;6.924;2022-11-12T00:56:08;8.40;99.90
43087;DHT22;28708;52.224;6.924;2022-11-12T00:58:52;8.30;99.90
43087;DHT22;28708;52.224;6.924;2022-11-12T01:01:36;8.30;99.90
43087;DHT22;28708;52.224;6.924;2022-11-12T01:04:20;8.20;99.90
43087;DHT22;28708;52.224;6.924;2022-11-12T01:07:04;8.20;99.90
43087;DHT22;28708;52.224;6.924;2022-11-12T01:09:48;8.20;99.90
43087;DHT22;28708;52.224;6.924;2022-11-12T01:12:32;8.20;99.90
43087;DHT22;28708;52.224;6.924;2022-11-12T01:15:17;8.20;99.90
43087;DHT22;28708;52.224;6.924;2022-11-12T01:18:01;8.20;99.90
43087;DHT22;28708;52.224;6.924;2022-11-12T01:20:45;8.10;99.90
43087;DHT22;28708;52.224;6.924;2022-11-12T01:23:31;8.10;99.90
43087;DHT22;28708;52.224;6.924;2022-11-12T01:26:18;8.00;99.90
43087;DHT22;28708;52.224;6.924;2022-11-12T01:29:03;8.00;99.90
43087;DHT22;28708;52.224;6.924;2022-11-12T01:31:47;8.00;99.90
43087;DHT22;28708;52.224;6.924;2022-11-12T01:34:32;8.10;99.90
43087;DHT22;28708;52.224;6.924;2022-11-12T01:37:16;8.10;99.90
43087;DHT22;28708;52.224;6.924;2022-11-12T01:40:00;7.90;99.90
43087;DHT22;28708;52.224;6.924;2022-11-12T01:42:53;7.90;99.90
43087;DHT22;28708;52.224;6.924;2022-11-12T01:45:39;8.00;99.90
43087;DHT22;28708;52.224;6.924;2022-11-12T01:48:37;8.00;99.90
43087;DHT22;28708;52.224;6.924;2022-11-12T01:51:26;8.00;99.90
43087;DHT22;28708;52.224;6.924;2022-11-12T01:54:14;8.00;99.90
43087;DHT22;28708;52.224;6.924;2022-11-12T01:57:00;7.90;99.90
43087;DHT22;28708;52.224;6.924;2022-11-12T01:59:46;7.80;99.90
43087;DHT22;28708;52.224;6.924;2022-11-12T02:02:34;7.90;99.90
43087;DHT22;28708;52.224;6.924;2022-11-12T02:05:20;7.80;99.90
43087;DHT22;28708;52.224;6.924;2022-11-12T02:08:05;7.60;99.90
43087;DHT22;28708;52.224;6.924;2022-11-12T02:10:50;7.40;99.90
43087;DHT22;28708;52.224;6.924;2022-11-12T02:13:34;7.20;99.90
43087;DHT22;28708;52.224;6.924;2022-11-12T02:16:45;7.10;99.90
43087;DHT22;28708;52.224;6.924;2022-11-12T02:19:30;7.10;99.90
43087;DHT22;28708;52.224;6.924;2022-11-12T02:22:14;7.10;99.90
43087;DHT22;28708;52.224;6.924;2022-11-12T02:24:58;7.10;99.90
43087;DHT22;28708;52.224;6.924;2022-11-12T02:27:43;7.00;99.90
43087;DHT22;28708;52.224;6.924;2022-11-12T02:33:15;6.90;99.90
43087;DHT22;28708;52.224;6.924;2022-11-12T02:35:59;6.90;99.90
43087;DHT22;28708;52.224;6.924;2022-11-12T02:38:43;6.80;99.90
43087;DHT22;28708;52.224;6.924;2022-11-12T02:41:27;6.70;99.90
43087;DHT22;28708;52.224;6.924;2022-11-12T02:44:12;6.70;99.90
43087;DHT22;28708;52.224;6.924;2022-11-12T02:46:56;6.70;99.90
43087;DHT22;28708;52.224;6.924;2022-11-12T02:49:39;6.80;99.90
43087;DHT22;28708;52.224;6.924;2022-11-12T02:52:23;6.70;99.90
43087;DHT22;28708;52.224;6.924;2022-11-12T02:55:09;6.70;99.90
43087;DHT22;28708;52.224;6.924;2022-11-12T02:57:57;6.70;99.90
43087;DHT22;28708;52.224;6.924;2022-11-12T03:00:41;6.70;99.90
43087;DHT22;28708;52.224;6.924;2022-11-12T03:03:25;6.70;99.90
43087;DHT22;28708;52.224;6.924;2022-11-12T03:06:09;6.70;99.90
43087;DHT22;28708;52.224;6.924;2022-11-12T03:08:53;6.70;99.90
43087;DHT22;28708;52.224;6.924;2022-11-12T03:11:37;6.70;99.90
43087;DHT22;28708;52.224;6.924;2022-11-12T03:14:23;6.80;99.90
43087;DHT22;28708;52.224;6.924;2022-11-12T03:17:07;6.80;99.90
43087;DHT22;28708;52.224;6.924;2022-11-12T03:19:51;6.80;99.90
43087;DHT22;28708;52.224;6.924;2022-11-12T03:22:36;6.80;99.90
43087;DHT22;28708;52.224;6.924;2022-11-12T03:25:21;6.80;99.90
43087;DHT22;28708;52.224;6.924;2022-11-12T03:28:09;6.80;99.90
43087;DHT22;28708;52.224;6.924;2022-11-12T03:30:59;6.80;99.90
43087;DHT22;28708;52.224;6.924;2022-11-12T03:33:44;6.60;99.90
43087;DHT22;28708;52.224;6.924;2022-11-12T03:36:29;6.50;99.90
43087;DHT22;28708;52.224;6.924;2022-11-12T03:39:13;6.50;99.90
43087;DHT22;28708;52.224;6.924;2022-11-12T03:41:57;6.50;99.90
43087;DHT22;28708;52.224;6.924;2022-11-12T03:44:41;6.40;99.90
43087;DHT22;28708;52.224;6.924;2022-11-12T03:47:25;6.50;99.90
43087;DHT22;28708;52.224;6.924;2022-11-12T03:50:11;6.50;99.90
43087;DHT22;28708;52.224;6.924;2022-11-12T03:52:56;6.50;99.90
43087;DHT22;28708;52.224;6.924;2022-11-12T03:55:41;6.60;99.90
43087;DHT22;28708;52.224;6.924;2022-11-12T03:58:25;6.60;99.90
43087;DHT22;28708;52.224;6.924;2022-11-12T04:01:09;6.60;99.90
43087;DHT22;28708;52.224;6.924;2022-11-12T04:03:54;6.60;99.90
43087;DHT22;28708;52.224;6.924;2022-11-12T04:06:38;6.70;99.90
43087;DHT22;28708;52.224;6.924;2022-11-12T04:09:41;6.60;99.90
43087;DHT22;28708;52.224;6.924;2022-11-12T04:12:25;6.50;99.90
43087;DHT22;28708;52.224;6.924;2022-11-12T04:15:28;6.50;99.90
43087;DHT22;28708;52.224;6.924;2022-11-12T04:18:12;6.40;99.90
43087;DHT22;28708;52.224;6.924;2022-11-12T04:21:15;6.40;99.90
43087;DHT22;28708;52.224;6.924;2022-11-12T04:24:30;6.20;99.90
43087;DHT22;28708;52.224;6.924;2022-11-12T04:27:34;6.30;99.90
43087;DHT22;28708;52.224;6.924;2022-11-12T04:30:18;6.40;99.90
43087;DHT22;28708;52.224;6.924;2022-11-12T04:33:02;6.30;99.90
43087;DHT22;28708;52.224;6.924;2022-11-12T04:35:46;6.20;99.90
43087;DHT22;28708;52.224;6.924;2022-11-12T04:38:30;6.40;99.90
43087;DHT22;28708;52.224;6.924;2022-11-12T04:41:14;6.40;99.90
43087;DHT22;28708;52.224;6.924;2022-11-12T04:44:16;6.50;99.90
43087;DHT22;28708;52.224;6.924;2022-11-12T04:47:19;6.50;99.90
43087;DHT22;28708;52.224;6.924;2022-11-12T04:50:06;6.50;99.90
43087;DHT22;28708;52.224;6.924;2022-11-12T04:52:51;6.50;99.90
43087;DHT22;28708;52.224;6.924;2022-11-12T04:55:35;6.50;99.90
43087;DHT22;28708;52.224;6.924;2022-11-12T04:58:20;6.50;99.90
43087;DHT22;28708;52.224;6.924;2022-11-12T05:01:04;6.40;99.90
43087;DHT22;28708;52.224;6.924;2022-11-12T05:03:48;6.30;99.90
43087;DHT22;28708;52.224;6.924;2022-11-12T05:06:32;6.30;99.90
43087;DHT22;28708;52.224;6.924;2022-11-12T05:09:35;6.30;99.90
43087;DHT22;28708;52.224;6.924;2022-11-12T05:12:20;6.30;99.90
43087;DHT22;28708;52.224;6.924;2022-11-12T05:15:04;6.30;99.90
43087;DHT22;28708;52.224;6.924;2022-11-12T05:17:49;6.30;99.90
43087;DHT22;28708;52.224;6.924;2022-11-12T05:20:34;6.30;99.90
43087;DHT22;28708;52.224;6.924;2022-11-12T05:23:18;6.20;99.90
43087;DHT22;28708;52.224;6.924;2022-11-12T05:26:02;6.20;99.90
43087;DHT22;28708;52.224;6.924;2022-11-12T05:28:46;6.10;99.90
43087;DHT22;28708;52.224;6.924;2022-11-12T05:31:31;6.20;99.90
43087;DHT22;28708;52.224;6.924;2022-11-12T05:34:15;6.10;99.90
43087;DHT22;28708;52.224;6.924;2022-11-12T05:37:01;6.10;99.90
43087;DHT22;28708;52.224;6.924;2022-11-12T05:39:46;6.00;99.90
43087;DHT22;28708;52.224;6.924;2022-11-12T05:42:30;6.00;99.90
43087;DHT22;28708;52.224;6.924;2022-11-12T05:45:14;6.00;99.90
43087;DHT22;28708;52.224;6.924;2022-11-12T05:47:58;5.90;99.90
43087;DHT22;28708;52.224;6.924;2022-11-12T05:50:42;5.80;99.90
43087;DHT22;28708;52.224;6.924;2022-11-12T05:53:26;5.70;99.90
43087;DHT22;28708;52.224;6.924;2022-11-12T05:56:10;5.70;99.90
43087;DHT22;28708;52.224;6.924;2022-11-12T05:58:56;5.80;99.90
43087;DHT22;28708;52.224;6.924;2022-11-12T06:01:40;5.70;99.90
43087;DHT22;28708;52.224;6.924;2022-11-12T06:04:27;5.50;99.90
43087;DHT22;28708;52.224;6.924;2022-11-12T06:07:11;5.60;99.90
43087;DHT22;28708;52.224;6.924;2022-11-12T06:09:55;5.60;99.90
43087;DHT22;28708;52.224;6.924;2022-11-12T06:12:39;5.60;99.90
43087;DHT22;28708;52.224;6.924;2022-11-12T06:15:24;5.60;99.90
43087;DHT22;28708;52.224;6.924;2022-11-12T06:18:11;5.60;99.90
43087;DHT22;28708;52.224;6.924;2022-11-12T06:21:07;5.70;99.90
43087;DHT22;28708;52.224;6.924;2022-11-12T06:24:04;5.60;99.90
43087;DHT22;28708;52.224;6.924;2022-11-12T06:26:48;5.50;99.90
43087;DHT22;28708;52.224;6.924;2022-11-12T06:29:32;5.50;99.90
43087;DHT22;28708;52.224;6.924;2022-11-12T06:32:17;5.40;99.90
43087;DHT22;28708;52.224;6.924;2022-11-12T06:35:02;5.40;99.90
43087;DHT22;28708;52.224;6.924;2022-11-12T06:37:46;5.40;99.90
43087;DHT22;28708;52.224;6.924;2022-11-12T06:40:31;5.40;99.90
43087;DHT22;28708;52.224;6.924;2022-11-12T06:43:16;5.30;99.90
43087;DHT22;28708;52.224;6.924;2022-11-12T06:46:12;5.30;99.90
43087;DHT22;28708;52.224;6.924;2022-11-12T06:48:56;5.30;99.90
43087;DHT22;28708;52.224;6.924;2022-11-12T06:51:40;5.30;99.90
43087;DHT22;28708;52.224;6.924;2022-11-12T06:54:24;5.40;99.90
43087;DHT22;28708;52.224;6.924;2022-11-12T06:57:09;5.40;99.90
43087;DHT22;28708;52.224;6.924;2022-11-12T06:59:53;5.30;99.90
43087;DHT22;28708;52.224;6.924;2022-11-12T07:02:37;5.30;99.90
43087;DHT22;28708;52.224;6.924;2022-11-12T07:05:21;5.30;99.90
43087;DHT22;28708;52.224;6.924;2022-11-12T07:08:05;5.30;99.90
43087;DHT22;28708;52.224;6.924;2022-11-12T07:10:55;5.20;99.90
43087;DHT22;28708;52.224;6.924;2022-11-12T07:13:40;5.30;99.90
43087;DHT22;28708;52.224;6.924;2022-11-12T07:16:24;5.30;99.90
43087;DHT22;28708;52.224;6.924;2022-11-12T07:19:08;5.30;99.90
43087;DHT22;28708;52.224;6.924;2022-11-12T07:21:52;5.30;99.90
43087;DHT22;28708;52.224;6.924;2022-11-12T07:24:36;5.40;99.90
43087;DHT22;28708;52.224;6.924;2022-11-12T07:27:20;5.40;99.90
43087;DHT22;28708;52.224;6.924;2022-11-12T07:30:05;5.30;99.90
43087;DHT22;28708;52.224;6.924;2022-11-12T07:32:49;5.40;99.90
43087;DHT22;28708;52.224;6.924;2022-11-12T07:35:33;5.40;99.90
43087;DHT22;28708;52.224;6.924;2022-11-12T07:38:17;5.40;99.90
43087;DHT22;28708;52.224;6.924;2022-11-12T07:41:06;5.40;99.90
43087;DHT22;28708;52.224;6.924;2022-11-12T07:43:51;5.40;99.90
43087;DHT22;28708;52.224;6.924;2022-11-12T07:46:36;5.50;99.90
43087;DHT22;28708;52.224;6.924;2022-11-12T07:49:20;5.50;99.90
43087;DHT22;28708;52.224;6.924;2022-11-12T07:52:04;5.60;99.90
43087;DHT22;28708;52.224;6.924;2022-11-12T07:54:48;5.70;99.90
43087;DHT22;28708;52.224;6.924;2022-11-12T07:57:32;5.70;99.90
43087;DHT22;28708;52.224;6.924;2022-11-12T08:00:17;5.80;99.90
43087;DHT22;28708;52.224;6.924;2022-11-12T08:03:01;5.80;99.90
43087;DHT22;28708;52.224;6.924;2022-11-12T08:05:46;5.90;99.90
43087;DHT22;28708;52.224;6.924;2022-11-12T08:08:30;6.00;99.90
43087;DHT22;28708;52.224;6.924;2022-11-12T08:11:15;6.10;99.90
43087;DHT22;28708;52.224;6.924;2022-11-12T08:13:59;6.20;99.90
43087;DHT22;28708;52.224;6.924;2022-11-12T08:16:44;6.20;99.90
43087;DHT22;28708;52.224;6.924;2022-11-12T08:19:29;6.30;99.90
43087;DHT22;28708;52.224;6.924;2022-11-12T08:22:13;6.40;99.90
43087;DHT22;28708;52.224;6.924;2022-11-12T08:24:58;6.60;99.90
43087;DHT22;28708;52.224;6.924;2022-11-12T08:27:42;6.70;99.90
43087;DHT22;28708;52.224;6.924;2022-11-12T08:30:27;6.70;99.90
43087;DHT22;28708;52.224;6.924;2022-11-12T08:33:12;6.80;99.90
43087;DHT22;28708;52.224;6.924;2022-11-12T08:35:56;6.90;99.90
43087;DHT22;28708;52.224;6.924;2022-11-12T08:38:40;7.20;99.90
43087;DHT22;28708;52.224;6.924;2022-11-12T08:41:25;7.40;99.90
43087;DHT22;28708;52.224;6.924;2022-11-12T08:44:09;7.60;99.90
43087;DHT22;28708;52.224;6.924;2022-11-12T08:46:53;7.70;99.90
43087;DHT22;28708;52.224;6.924;2022-11-12T08:49:37;7.90;99.90
43087;DHT22;28708;52.224;6.924;2022-11-12T08:52:22;8.00;99.90
43087;DHT22;28708;52.224;6.924;2022-11-12T08:55:06;8.20;99.90
43087;DHT22;28708;52.224;6.924;2022-11-12T08:57:51;8.40;99.90
43087;DHT22;28708;52.224;6.924;2022-11-12T09:00:40;8.60;99.90
43087;DHT22;28708;52.224;6.924;2022-11-12T09:03:25;8.80;99.90
43087;DHT22;28708;52.224;6.924;2022-11-12T09:06:09;9.00;99.90
43087;DHT22;28708;52.224;6.924;2022-11-12T09:08:53;9.30;99.90
43087;DHT22;28708;52.224;6.924;2022-11-12T09:11:38;9.50;99.90
43087;DHT22;28708;52.224;6.924;2022-11-12T09:14:22;9.70;99.90
43087;DHT22;28708;52.224;6.924;2022-11-12T09:17:06;10.20;99.90
43087;DHT22;28708;52.224;6.924;2022-11-12T09:19:50;11.20;99.90
43087;DHT22;28708;52.224;6.924;2022-11-12T09:22:34;13.00;99.90
43087;DHT22;28708;52.224;6.924;2022-11-12T09:25:18;14.80;99.90
43087;DHT22;28708;52.224;6.924;2022-11-12T09:28:11;15.70;99.90
43087;DHT22;28708;52.224;6.924;2022-11-12T09:30:56;16.30;99.90
43087;DHT22;28708;52.224;6.924;2022-11-12T09:33:40;17.60;99.90
43087;DHT22;28708;52.224;6.924;2022-11-12T09:36:24;19.70;99.90
43087;DHT22;28708;52.224;6.924;2022-11-12T09:39:07;20.40;99.90
43087;DHT22;28708;52.224;6.924;2022-11-12T09:41:51;20.50;99.90
43087;DHT22;28708;52.224;6.924;2022-11-12T09:44:37;20.60;99.90
43087;DHT22;28708;52.224;6.924;2022-11-12T09:47:44;21.40;99.90
43087;DHT22;28708;52.224;6.924;2022-11-12T09:50:42;21.00;99.90
43087;DHT22;28708;52.224;6.924;2022-11-12T09:56:27;22.90;98.40
43087;DHT22;28708;52.224;6.924;2022-11-12T09:59:12;23.00;97.50
43087;DHT22;28708;52.224;6.924;2022-11-12T10:05:32;22.70;94.90
43087;DHT22;28708;52.224;6.924;2022-11-12T10:11:51;24.00;94.10
43087;DHT22;28708;52.224;6.924;2022-11-12T10:15:27;22.40;93.90
43087;DHT22;28708;52.224;6.924;2022-11-12T10:27:59;22.40;94.30
43087;DHT22;28708;52.224;6.924;2022-11-12T10:30:45;22.80;94.00
43087;DHT22;28708;52.224;6.924;2022-11-12T10:33:30;24.40;92.20
43087;DHT22;28708;52.224;6.924;2022-11-12T10:36:30;23.80;91.40
43087;DHT22;28708;52.224;6.924;2022-11-12T10:39:36;24.00;91.30
43087;DHT22;28708;52.224;6.924;2022-11-12T10:42:21;23.70;91.20
43087;DHT22;28708;52.224;6.924;2022-11-12T10:45:20;22.30;93.50
43087;DHT22;28708;52.224;6.924;2022-11-12T10:48:22;23.10;93.20
43087;DHT22;28708;52.224;6.924;2022-11-12T10:51:19;23.90;91.20
43087;DHT22;28708;52.224;6.924;2022-11-12T10:57:23;23.80;91.90
43087;DHT22;28708;52.224;6.924;2022-11-12T11:02:56;24.20;91.60
43087;DHT22;28708;52.224;6.924;2022-11-12T11:08:40;22.00;91.60
43087;DHT22;28708;52.224;6.924;2022-11-12T11:11:26;22.20;92.40
43087;DHT22;28708;52.224;6.924;2022-11-12T11:14:26;21.70;92.60
43087;DHT22;28708;52.224;6.924;2022-11-12T11:17:16;23.10;91.80
43087;DHT22;28708;52.224;6.924;2022-11-12T11:20:03;23.80;91.50
43087;DHT22;28708;52.224;6.924;2022-11-12T11:22:55;23.60;90.10
43087;DHT22;28708;52.224;6.924;2022-11-12T11:25:42;22.30;92.10
43087;DHT22;28708;52.224;6.924;2022-11-12T11:28:43;23.20;91.50
43087;DHT22;28708;52.224;6.924;2022-11-12T11:31:38;22.70;91.30
43087;DHT22;28708;52.224;6.924;2022-11-12T11:34:27;22.40;91.30
43087;DHT22;28708;52.224;6.924;2022-11-12T11:37:26;20.80;93.50
43087;DHT22;28708;52.224;6.924;2022-11-12T11:40:38;19.50;95.50
43087;DHT22;28708;52.224;6.924;2022-11-12T11:43:46;17.80;98.00
43087;DHT22;28708;52.224;6.924;2022-11-12T11:46:51;16.60;99.90
43087;DHT22;28708;52.224;6.924;2022-11-12T11:55:53;15.50;99.90
43087;DHT22;28708;52.224;6.924;2022-11-12T12:08:30;15.20;99.90
43087;DHT22;28708;52.224;6.924;2022-11-12T12:11:26;15.20;99.90
43087;DHT22;28708;52.224;6.924;2022-11-12T12:14:24;15.20;99.90
43087;DHT22;28708;52.224;6.924;2022-11-12T12:21:08;15.20;99.90
43087;DHT22;28708;52.224;6.924;2022-11-12T12:26:46;15.30;99.90
43087;DHT22;28708;52.224;6.924;2022-11-12T12:29:45;15.30;99.90
43087;DHT22;28708;52.224;6.924;2022-11-12T12:35:33;15.20;99.90
43087;DHT22;28708;52.224;6.924;2022-11-12T12:41:26;15.10;99.90
43087;DHT22;28708;52.224;6.924;2022-11-12T12:44:12;15.20;99.90
43087;DHT22;28708;52.224;6.924;2022-11-12T12:46:58;15.30;99.90
43087;DHT22;28708;52.224;6.924;2022-11-12T12:49:45;15.20;99.90
43087;DHT22;28708;52.224;6.924;2022-11-12T12:52:58;15.40;99.90
43087;DHT22;28708;52.224;6.924;2022-11-12T12:55:45;15.40;99.90
43087;DHT22;28708;52.224;6.924;2022-11-12T13:04:04;15.50;99.90
43087;DHT22;28708;52.224;6.924;2022-11-12T13:06:52;15.70;99.90
43087;DHT22;28708;52.224;6.924;2022-11-12T13:09:38;15.60;99.90
43087;DHT22;28708;52.224;6.924;2022-11-12T13:15:50;15.70;99.90
43087;DHT22;28708;52.224;6.924;2022-11-12T13:21:23;15.70;99.90
43087;DHT22;28708;52.224;6.924;2022-11-12T13:24:08;15.70;99.90
43087;DHT22;28708;52.224;6.924;2022-11-12T13:26:59;15.40;99.90
43087;DHT22;28708;52.224;6.924;2022-11-12T13:29:45;15.40;99.90
43087;DHT22;28708;52.224;6.924;2022-11-12T13:35:37;15.60;99.90
43087;DHT22;28708;52.224;6.924;2022-11-12T13:38:22;15.30;99.90
43087;DHT22;28708;52.224;6.924;2022-11-12T13:41:15;15.30;99.90
43087;DHT22;28708;52.224;6.924;2022-11-12T13:44:05;15.30;99.90
43087;DHT22;28708;52.224;6.924;2022-11-12T13:46:51;15.50;99.90
43087;DHT22;28708;52.224;6.924;2022-11-12T13:49:36;15.60;99.90
43087;DHT22;28708;52.224;6.924;2022-11-12T13:52:21;15.60;99.90
43087;DHT22;28708;52.224;6.924;2022-11-12T13:55:17;15.60;99.90
43087;DHT22;28708;52.224;6.924;2022-11-12T13:58:01;15.70;99.90
43087;DHT22;28708;52.224;6.924;2022-11-12T14:00:59;15.80;99.90
43087;DHT22;28708;52.224;6.924;2022-11-12T14:03:46;15.80;99.90
43087;DHT22;28708;52.224;6.924;2022-11-12T14:06:34;15.80;99.90
43087;DHT22;28708;52.224;6.924;2022-11-12T14:13:04;15.50;99.90
43087;DHT22;28708;52.224;6.924;2022-11-12T14:22:12;15.70;99.90
43087;DHT22;28708;52.224;6.924;2022-11-12T14:25:01;15.70;99.90
43087;DHT22;28708;52.224;6.924;2022-11-12T14:27:48;15.70;99.90
43087;DHT22;28708;52.224;6.924;2022-11-12T14:30:32;15.60;99.90
43087;DHT22;28708;52.224;6.924;2022-11-12T14:33:18;15.50;99.90
43087;DHT22;28708;52.224;6.924;2022-11-12T14:36:11;15.40;99.90
43087;DHT22;28708;52.224;6.924;2022-11-12T14:38:57;15.30;99.90
43087;DHT22;28708;52.224;6.924;2022-11-12T14:41:42;15.20;99.90
43087;DHT22;28708;52.224;6.924;2022-11-12T14:44:37;15.10;99.90
43087;DHT22;28708;52.224;6.924;2022-11-12T14:47:21;15.10;99.90
43087;DHT22;28708;52.224;6.924;2022-11-12T14:50:24;15.20;99.90
43087;DHT22;28708;52.224;6.924;2022-11-12T14:53:33;15.00;99.90
43087;DHT22;28708;52.224;6.924;2022-11-12T14:59:18;14.50;99.90
43087;DHT22;28708;52.224;6.924;2022-11-12T15:02:13;14.40;99.90
43087;DHT22;28708;52.224;6.924;2022-11-12T15:04:59;14.20;99.90
43087;DHT22;28708;52.224;6.924;2022-11-12T15:07:56;14.00;99.90
43087;DHT22;28708;52.224;6.924;2022-11-12T15:10:45;13.90;99.90
43087;DHT22;28708;52.224;6.924;2022-11-12T15:13:37;13.70;99.90
43087;DHT22;28708;52.224;6.924;2022-11-12T15:16:28;13.60;99.90
43087;DHT22;28708;52.224;6.924;2022-11-12T15:21:59;13.30;99.90
43087;DHT22;28708;52.224;6.924;2022-11-12T15:24:44;13.20;99.90
43087;DHT22;28708;52.224;6.924;2022-11-12T15:27:40;13.20;99.90
43087;DHT22;28708;52.224;6.924;2022-11-12T15:30:28;13.00;99.90
43087;DHT22;28708;52.224;6.924;2022-11-12T15:35:58;12.80;99.90
43087;DHT22;28708;52.224;6.924;2022-11-12T15:38:48;12.70;99.90
43087;DHT22;28708;52.224;6.924;2022-11-12T15:41:33;12.60;99.90
43087;DHT22;28708;52.224;6.924;2022-11-12T15:44:18;12.60;99.90
43087;DHT22;28708;52.224;6.924;2022-11-12T15:47:03;12.50;99.90
43087;DHT22;28708;52.224;6.924;2022-11-12T15:49:55;12.40;99.90
43087;DHT22;28708;52.224;6.924;2022-11-12T15:52:39;12.30;99.90
43087;DHT22;28708;52.224;6.924;2022-11-12T15:55:23;12.20;99.90
43087;DHT22;28708;52.224;6.924;2022-11-12T15:58:30;12.00;99.90
43087;DHT22;28708;52.224;6.924;2022-11-12T16:01:15;11.90;99.90
43087;DHT22;28708;52.224;6.924;2022-11-12T16:03:59;11.90;99.90
43087;DHT22;28708;52.224;6.924;2022-11-12T16:06:43;11.80;99.90
43087;DHT22;28708;52.224;6.924;2022-11-12T16:09:27;11.80;99.90
43087;DHT22;28708;52.224;6.924;2022-11-12T16:12:12;11.70;99.90
43087;DHT22;28708;52.224;6.924;2022-11-12T16:14:57;11.70;99.90
43087;DHT22;28708;52.224;6.924;2022-11-12T16:17:42;11.70;99.90
43087;DHT22;28708;52.224;6.924;2022-11-12T16:20:30;11.60;99.90
43087;DHT22;28708;52.224;6.924;2022-11-12T16:23:15;11.50;99.90
43087;DHT22;28708;52.224;6.924;2022-11-12T16:26:00;11.40;99.90
43087;DHT22;28708;52.224;6.924;2022-11-12T16:28:45;11.30;99.90
43087;DHT22;28708;52.224;6.924;2022-11-12T16:31:29;11.20;99.90
43087;DHT22;28708;52.224;6.924;2022-11-12T16:34:13;11.20;99.90
43087;DHT22;28708;52.224;6.924;2022-11-12T16:36:57;11.20;99.90
43087;DHT22;28708;52.224;6.924;2022-11-12T16:39:42;11.20;99.90
43087;DHT22;28708;52.224;6.924;2022-11-12T16:42:26;11.10;99.90
43087;DHT22;28708;52.224;6.924;2022-11-12T16:45:13;11.10;99.90
43087;DHT22;28708;52.224;6.924;2022-11-12T16:47:58;11.00;99.90
43087;DHT22;28708;52.224;6.924;2022-11-12T16:50:43;10.90;99.90
43087;DHT22;28708;52.224;6.924;2022-11-12T16:53:27;10.90;99.90
43087;DHT22;28708;52.224;6.924;2022-11-12T16:56:14;10.80;99.90
43087;DHT22;28708;52.224;6.924;2022-11-12T16:58:59;10.80;99.90
43087;DHT22;28708;52.224;6.924;2022-11-12T17:01:43;10.70;99.90
43087;DHT22;28708;52.224;6.924;2022-11-12T17:04:27;10.70;99.90
43087;DHT22;28708;52.224;6.924;2022-11-12T17:07:11;10.60;99.90
43087;DHT22;28708;52.224;6.924;2022-11-12T17:09:55;10.50;99.90
43087;DHT22;28708;52.224;6.924;2022-11-12T17:12:39;10.50;99.90
43087;DHT22;28708;52.224;6.924;2022-11-12T17:15:23;10.50;99.90
43087;DHT22;28708;52.224;6.924;2022-11-12T17:18:07;10.40;99.90
43087;DHT22;28708;52.224;6.924;2022-11-12T17:20:53;10.40;99.90
43087;DHT22;28708;52.224;6.924;2022-11-12T17:23:37;10.30;99.90
43087;DHT22;28708;52.224;6.924;2022-11-12T17:26:22;10.30;99.90
43087;DHT22;28708;52.224;6.924;2022-11-12T17:29:06;10.30;99.90
43087;DHT22;28708;52.224;6.924;2022-11-12T17:31:51;10.30;99.90
43087;DHT22;28708;52.224;6.924;2022-11-12T17:34:35;10.30;99.90
43087;DHT22;28708;52.224;6.924;2022-11-12T17:37:19;10.20;99.90
43087;DHT22;28708;52.224;6.924;2022-11-12T17:40:04;10.20;99.90
43087;DHT22;28708;52.224;6.924;2022-11-12T17:42:48;10.20;99.90
43087;DHT22;28708;52.224;6.924;2022-11-12T17:45:32;10.20;99.90
43087;DHT22;28708;52.224;6.924;2022-11-12T17:48:16;10.20;99.90
43087;DHT22;28708;52.224;6.924;2022-11-12T17:51:10;10.20;99.90
43087;DHT22;28708;52.224;6.924;2022-11-12T17:53:55;10.20;99.90
43087;DHT22;28708;52.224;6.924;2022-11-12T17:56:39;10.20;99.90
43087;DHT22;28708;52.224;6.924;2022-11-12T17:59:23;10.10;99.90
43087;DHT22;28708;52.224;6.924;2022-11-12T18:02:11;10.10;99.90
43087;DHT22;28708;52.224;6.924;2022-11-12T18:04:55;10.00;99.90
43087;DHT22;28708;52.224;6.924;2022-11-12T18:07:39;10.00;99.90
43087;DHT22;28708;52.224;6.924;2022-11-12T18:10:24;9.90;99.90
43087;DHT22;28708;52.224;6.924;2022-11-12T18:13:07;9.90;99.90
43087;DHT22;28708;52.224;6.924;2022-11-12T18:15:51;9.80;99.90
43087;DHT22;28708;52.224;6.924;2022-11-12T18:18:35;9.80;99.90
43087;DHT22;28708;52.224;6.924;2022-11-12T18:21:20;9.80;99.90
43087;DHT22;28708;52.224;6.924;2022-11-12T18:24:05;9.80;99.90
43087;DHT22;28708;52.224;6.924;2022-11-12T18:26:50;9.80;99.90
43087;DHT22;28708;52.224;6.924;2022-11-12T18:29:34;9.80;99.90
43087;DHT22;28708;52.224;6.924;2022-11-12T18:32:19;9.70;99.90
43087;DHT22;28708;52.224;6.924;2022-11-12T18:35:03;9.70;99.90
43087;DHT22;28708;52.224;6.924;2022-11-12T18:37:48;9.70;99.90
43087;DHT22;28708;52.224;6.924;2022-11-12T18:40:32;9.70;99.90
43087;DHT22;28708;52.224;6.924;2022-11-12T18:43:16;9.70;99.90
43087;DHT22;28708;52.224;6.924;2022-11-12T18:46:00;9.60;99.90
43087;DHT22;28708;52.224;6.924;2022-11-12T18:48:44;9.60;99.90
43087;DHT22;28708;52.224;6.924;2022-11-12T18:51:28;9.60;99.90
43087;DHT22;28708;52.224;6.924;2022-11-12T18:54:12;9.50;99.90
43087;DHT22;28708;52.224;6.924;2022-11-12T18:56:58;9.50;99.90
43087;DHT22;28708;52.224;6.924;2022-11-12T18:59:42;9.60;99.90
43087;DHT22;28708;52.224;6.924;2022-11-12T19:02:26;9.60;99.90
43087;DHT22;28708;52.224;6.924;2022-11-12T19:05:11;9.60;99.90
43087;DHT22;28708;52.224;6.924;2022-11-12T19:07:55;9.50;99.90
43087;DHT22;28708;52.224;6.924;2022-11-12T19:10:39;9.50;99.90
43087;DHT22;28708;52.224;6.924;2022-11-12T19:13:23;9.50;99.90
43087;DHT22;28708;52.224;6.924;2022-11-12T19:18:56;9.50;99.90
43087;DHT22;28708;52.224;6.924;2022-11-12T19:21:41;9.40;99.90